sensor_id;sensor_type;location;lat;lon;timestamp;pressure;altitude;pressure_sealevel;temperature;humidity
85897;BME280;76442;52.412;16.940;2024-02-26T00:10:09;100149.0;;;3.21;91.53
85897;BME280;76442;52.412;16.940;2024-02-26T00:25:09;100154.0;;;2.98;91.79
85897;BME280;76442;52.412;16.940;2024-02-26T00:40:09;100147.0;;;2.8;91.71
85897;BME280;76442;52.412;16.940;2024-02-26T00:55:09;100144.0;;;2.51;91.93
85897;BME280;76442;52.412;16.940;2024-02-26T01:10:09;100148.0;;;2.26;92.5
85897;BME280;76442;52.412;16.940;2024-02-26T01:25:09;100150.0;;;2.07;93.2
85897;BME280;76442;52.412;16.940;2024-02-26T01:40:09;100153.0;;;1.71;92.81
85897;BME280;76442;52.412;16.940;2024-02-26T01:55:09;100149.0;;;1.39;93.95
85897;BME280;76442;52.412;16.940;2024-02-26T02:10:10;100160.0;;;1.25;94.35
85897;BME280;76442;52.412;16.940;2024-02-26T02:25:09;100159.0;;;1.13;94.7
85897;BME280;76442;52.412;16.940;2024-02-26T02:40:10;100163.0;;;1.0;94.73
85897;BME280;76442;52.412;16.940;2024-02-26T02:55:10;100152.0;;;0.89;94.84
85897;BME280;76442;52.412;16.940;2024-02-26T03:10:09;100130.0;;;0.68;94.59
85897;BME280;76442;52.412;16.940;2024-02-26T03:25:10;100126.0;;;0.5;94.83
85897;BME280;76442;52.412;16.940;2024-02-26T03:40:09;100127.0;;;0.52;95.52
85897;BME280;76442;52.412;16.940;2024-02-26T03:55:10;100135.0;;;0.64;95.65
85897;BME280;76442;52.412;16.940;2024-02-26T04:10:09;100150.0;;;0.82;95.71
85897;BME280;76442;52.412;16.940;2024-02-26T04:25:09;100145.0;;;0.76;95.53
85897;BME280;76442;52.412;16.940;2024-02-26T04:40:09;100151.0;;;0.62;95.03
85897;BME280;76442;52.412;16.940;2024-02-26T04:55:09;100154.0;;;0.56;95.18
85897;BME280;76442;52.412;16.940;2024-02-26T05:10:09;100161.0;;;0.25;94.82
85897;BME280;76442;52.412;16.940;2024-02-26T05:25:09;100163.0;;;0.14;95.1
85897;BME280;76442;52.412;16.940;2024-02-26T05:50:09;100197.0;;;0.17;95.17
85897;BME280;76442;52.412;16.940;2024-02-26T06:05:09;100188.0;;;0.26;95.24
85897;BME280;76442;52.412;16.940;2024-02-26T06:20:09;100185.0;;;0.66;95.29
85897;BME280;76442;52.412;16.940;2024-02-26T06:35:09;100192.0;;;1.65;94.4
85897;BME280;76442;52.412;16.940;2024-02-26T06:50:09;100193.0;;;2.45;93.42
85897;BME280;76442;52.412;16.940;2024-02-26T07:05:09;100204.0;;;2.84;89.96
85897;BME280;76442;52.412;16.940;2024-02-26T07:20:09;100208.0;;;3.26;88.98
85897;BME280;76442;52.412;16.940;2024-02-26T07:35:09;100203.0;;;3.53;87.92
85897;BME280;76442;52.412;16.940;2024-02-26T07:50:09;100196.0;;;4.25;88.28
85897;BME280;76442;52.412;16.940;2024-02-26T08:05:09;100226.0;;;5.18;86.58
85897;BME280;76442;52.412;16.940;2024-02-26T08:20:09;100228.0;;;5.82;85.01
85897;BME280;76442;52.412;16.940;2024-02-26T08:35:09;100222.0;;;6.66;83.92
85897;BME280;76442;52.412;16.940;2024-02-26T08:50:09;100217.0;;;7.72;79.7
85897;BME280;76442;52.412;16.940;2024-02-26T09:05:09;100222.0;;;8.62;76.79
85897;BME280;76442;52.412;16.940;2024-02-26T09:25:09;100211.0;;;9.59;73.59
85897;BME280;76442;52.412;16.940;2024-02-26T09:40:09;100206.0;;;9.8;72.18
85897;BME280;76442;52.412;16.940;2024-02-26T09:55:09;100218.0;;;10.02;71.12
85897;BME280;76442;52.412;16.940;2024-02-26T10:10:09;100212.0;;;10.34;70.67
85897;BME280;76442;52.412;16.940;2024-02-26T10:30:09;100210.0;;;10.58;70.1
85897;BME280;76442;52.412;16.940;2024-02-26T10:45:09;100199.0;;;10.59;69.91
85897;BME280;76442;52.412;16.940;2024-02-26T11:00:09;100202.0;;;10.83;70.16
85897;BME280;76442;52.412;16.940;2024-02-26T11:15:09;100197.0;;;10.91;69.18
85897;BME280;76442;52.412;16.940;2024-02-26T11:30:09;100187.0;;;11.01;67.46
85897;BME280;76442;52.412;16.940;2024-02-26T12:50:09;100182.0;;;11.89;65.01
85897;BME280;76442;52.412;16.940;2024-02-26T13:05:09;100182.0;;;12.08;63.75
85897;BME280;76442;52.412;16.940;2024-02-26T13:20:09;100198.0;;;12.1;64.03
85897;BME280;76442;52.412;16.940;2024-02-26T13:35:09;100198.0;;;12.26;63.53
85897;BME280;76442;52.412;16.940;2024-02-26T13:50:09;100197.0;;;12.35;62.53
85897;BME280;76442;52.412;16.940;2024-02-26T14:05:09;100199.0;;;12.42;62.66
85897;BME280;76442;52.412;16.940;2024-02-26T14:20:09;100198.0;;;12.56;62.03
85897;BME280;76442;52.412;16.940;2024-02-26T14:35:09;100199.0;;;12.66;61.15
85897;BME280;76442;52.412;16.940;2024-02-26T14:55:09;100195.0;;;12.61;61.62
85897;BME280;76442;52.412;16.940;2024-02-26T15:10:09;100214.0;;;12.54;61.94
85897;BME280;76442;52.412;16.940;2024-02-26T15:25:10;100220.0;;;12.27;63.63
85897;BME280;76442;52.412;16.940;2024-02-26T15:40:09;100226.0;;;12.12;64.04
85897;BME280;76442;52.412;16.940;2024-02-26T15:55:10;100239.0;;;11.93;65.19
85897;BME280;76442;52.412;16.940;2024-02-26T16:10:10;100247.0;;;11.67;66.14
85897;BME280;76442;52.412;16.940;2024-02-26T16:25:09;100265.0;;;11.46;67.08
85897;BME280;76442;52.412;16.940;2024-02-26T16:45:09;100278.0;;;11.32;67.75
85897;BME280;76442;52.412;16.940;2024-02-26T17:00:09;100288.0;;;11.21;68.76
85897;BME280;76442;52.412;16.940;2024-02-26T17:15:09;100298.0;;;11.16;69.54
85897;BME280;76442;52.412;16.940;2024-02-26T17:30:09;100307.0;;;10.95;71.09
85897;BME280;76442;52.412;16.940;2024-02-26T17:55:09;100310.0;;;10.81;72.23
85897;BME280;76442;52.412;16.940;2024-02-26T18:10:09;100317.0;;;10.77;72.42
85897;BME280;76442;52.412;16.940;2024-02-26T18:25:09;100341.0;;;10.73;72.36
85897;BME280;76442;52.412;16.940;2024-02-26T18:40:09;100354.0;;;10.74;71.94
85897;BME280;76442;52.412;16.940;2024-02-26T18:55:09;100361.0;;;10.66;72.95
85897;BME280;76442;52.412;16.940;2024-02-26T19:10:09;100370.0;;;10.44;73.92
85897;BME280;76442;52.412;16.940;2024-02-26T19:25:09;100377.0;;;10.36;74.53
85897;BME280;76442;52.412;16.940;2024-02-26T19:40:09;100390.0;;;10.33;74.99
85897;BME280;76442;52.412;16.940;2024-02-26T19:55:09;100389.0;;;10.3;75.52
85897;BME280;76442;52.412;16.940;2024-02-26T20:10:09;100397.0;;;10.32;77.09
85897;BME280;76442;52.412;16.940;2024-02-26T20:30:09;100395.0;;;10.09;77.01
85897;BME280;76442;52.412;16.940;2024-02-26T20:45:09;100394.0;;;9.97;77.96
85897;BME280;76442;52.412;16.940;2024-02-26T21:00:09;100384.0;;;9.8;78.83
85897;BME280;76442;52.412;16.940;2024-02-26T21:15:09;100404.0;;;9.76;78.99
85897;BME280;76442;52.412;16.940;2024-02-26T21:30:09;100428.0;;;9.61;80.07
85897;BME280;76442;52.412;16.940;2024-02-26T21:45:09;100437.0;;;9.43;81.05
85897;BME280;76442;52.412;16.940;2024-02-26T22:00:09;100439.0;;;9.31;81.66
85897;BME280;76442;52.412;16.940;2024-02-26T22:15:09;100434.0;;;9.17;82.24
85897;BME280;76442;52.412;16.940;2024-02-26T22:30:09;100449.0;;;9.06;82.92
85897;BME280;76442;52.412;16.940;2024-02-26T22:45:09;100467.0;;;9.05;83.31
85897;BME280;76442;52.412;16.940;2024-02-26T23:00:09;100466.0;;;9.03;83.7
85897;BME280;76442;52.412;16.940;2024-02-26T23:35:09;100482.0;;;8.95;84.37
85897;BME280;76442;52.412;16.940;2024-02-26T23:50:09;100493.0;;;8.99;84.54
